sensor_id;sensor_type;location;lat;lon;timestamp;P1;durP1;ratioP1;P2;durP2;ratioP2
33553;SDS011;19885;42.208;24.952;2023-04-24T00:00:21;26.30;;;10.60;;
33553;SDS011;19885;42.208;24.952;2023-04-24T00:02:46;15.33;;;9.90;;
33553;SDS011;19885;42.208;24.952;2023-04-24T00:05:13;22.80;;;11.13;;
33553;SDS011;19885;42.208;24.952;2023-04-24T00:07:40;17.37;;;10.23;;
33553;SDS011;19885;42.208;24.952;2023-04-24T00:10:06;24.83;;;10.43;;
33553;SDS011;19885;42.208;24.952;2023-04-24T00:12:32;18.53;;;11.37;;
33553;SDS011;19885;42.208;24.952;2023-04-24T00:14:59;17.90;;;9.80;;
33553;SDS011;19885;42.208;24.952;2023-04-24T00:17:24;21.40;;;10.67;;
33553;SDS011;19885;42.208;24.952;2023-04-24T00:19:50;17.27;;;10.17;;
33553;SDS011;19885;42.208;24.952;2023-04-24T00:22:16;15.73;;;9.20;;
33553;SDS011;19885;42.208;24.952;2023-04-24T00:24:42;17.60;;;10.00;;
33553;SDS011;19885;42.208;24.952;2023-04-24T00:27:08;23.83;;;10.23;;
33553;SDS011;19885;42.208;24.952;2023-04-24T00:29:34;16.60;;;9.07;;
33553;SDS011;19885;42.208;24.952;2023-04-24T00:31:59;13.77;;;8.80;;
33553;SDS011;19885;42.208;24.952;2023-04-24T00:34:25;23.43;;;10.17;;
33553;SDS011;19885;42.208;24.952;2023-04-24T00:36:50;20.57;;;10.10;;
33553;SDS011;19885;42.208;24.952;2023-04-24T00:39:19;15.97;;;8.80;;
33553;SDS011;19885;42.208;24.952;2023-04-24T00:41:45;12.43;;;8.67;;
33553;SDS011;19885;42.208;24.952;2023-04-24T00:44:13;12.60;;;8.80;;
33553;SDS011;19885;42.208;24.952;2023-04-24T00:46:38;18.53;;;9.70;;
33553;SDS011;19885;42.208;24.952;2023-04-24T00:49:04;15.47;;;9.33;;
33553;SDS011;19885;42.208;24.952;2023-04-24T00:51:31;11.70;;;8.00;;
33553;SDS011;19885;42.208;24.952;2023-04-24T00:53:57;17.63;;;9.43;;
33553;SDS011;19885;42.208;24.952;2023-04-24T00:56:26;15.50;;;9.60;;
33553;SDS011;19885;42.208;24.952;2023-04-24T00:58:52;17.60;;;8.77;;
33553;SDS011;19885;42.208;24.952;2023-04-24T01:01:21;14.37;;;8.73;;
33553;SDS011;19885;42.208;24.952;2023-04-24T01:03:49;11.10;;;7.20;;
33553;SDS011;19885;42.208;24.952;2023-04-24T01:06:15;15.30;;;7.63;;
33553;SDS011;19885;42.208;24.952;2023-04-24T01:08:41;17.43;;;7.67;;
33553;SDS011;19885;42.208;24.952;2023-04-24T01:11:08;10.57;;;6.27;;
33553;SDS011;19885;42.208;24.952;2023-04-24T01:13:34;15.37;;;7.43;;
33553;SDS011;19885;42.208;24.952;2023-04-24T01:15:59;12.47;;;5.67;;
33553;SDS011;19885;42.208;24.952;2023-04-24T01:18:26;13.23;;;6.23;;
33553;SDS011;19885;42.208;24.952;2023-04-24T01:20:53;10.03;;;6.80;;
33553;SDS011;19885;42.208;24.952;2023-04-24T01:23:21;17.27;;;7.63;;
33553;SDS011;19885;42.208;24.952;2023-04-24T01:25:47;13.40;;;8.90;;
33553;SDS011;19885;42.208;24.952;2023-04-24T01:28:13;35.60;;;18.73;;
33553;SDS011;19885;42.208;24.952;2023-04-24T01:30:39;26.77;;;14.27;;
33553;SDS011;19885;42.208;24.952;2023-04-24T01:33:05;23.97;;;11.97;;
33553;SDS011;19885;42.208;24.952;2023-04-24T01:35:31;17.93;;;8.83;;
33553;SDS011;19885;42.208;24.952;2023-04-24T01:37:56;16.17;;;8.50;;
33553;SDS011;19885;42.208;24.952;2023-04-24T01:40:22;22.87;;;11.57;;
33553;SDS011;19885;42.208;24.952;2023-04-24T01:42:48;16.53;;;10.90;;
33553;SDS011;19885;42.208;24.952;2023-04-24T01:45:13;15.10;;;10.27;;
33553;SDS011;19885;42.208;24.952;2023-04-24T01:47:39;16.63;;;10.00;;
33553;SDS011;19885;42.208;24.952;2023-04-24T01:50:05;14.70;;;9.30;;
33553;SDS011;19885;42.208;24.952;2023-04-24T01:52:31;18.67;;;7.90;;
33553;SDS011;19885;42.208;24.952;2023-04-24T01:55:01;15.50;;;7.27;;
33553;SDS011;19885;42.208;24.952;2023-04-24T01:57:28;30.60;;;9.00;;
33553;SDS011;19885;42.208;24.952;2023-04-24T01:59:55;20.37;;;11.13;;
33553;SDS011;19885;42.208;24.952;2023-04-24T02:02:21;20.03;;;11.20;;
33553;SDS011;19885;42.208;24.952;2023-04-24T02:04:49;20.27;;;10.60;;
33553;SDS011;19885;42.208;24.952;2023-04-24T02:07:15;17.13;;;9.70;;
33553;SDS011;19885;42.208;24.952;2023-04-24T02:09:40;17.30;;;9.00;;
33553;SDS011;19885;42.208;24.952;2023-04-24T02:12:06;19.40;;;8.80;;
33553;SDS011;19885;42.208;24.952;2023-04-24T02:14:31;10.87;;;8.33;;
33553;SDS011;19885;42.208;24.952;2023-04-24T02:16:57;9.90;;;5.50;;
33553;SDS011;19885;42.208;24.952;2023-04-24T02:19:22;10.03;;;5.60;;
33553;SDS011;19885;42.208;24.952;2023-04-24T02:21:48;9.53;;;5.10;;
33553;SDS011;19885;42.208;24.952;2023-04-24T02:24:13;12.00;;;6.43;;
33553;SDS011;19885;42.208;24.952;2023-04-24T02:26:39;7.83;;;5.23;;
33553;SDS011;19885;42.208;24.952;2023-04-24T02:29:04;8.00;;;5.50;;
33553;SDS011;19885;42.208;24.952;2023-04-24T02:31:30;8.07;;;4.87;;
33553;SDS011;19885;42.208;24.952;2023-04-24T02:33:55;7.97;;;5.13;;
33553;SDS011;19885;42.208;24.952;2023-04-24T02:36:21;11.13;;;5.90;;
33553;SDS011;19885;42.208;24.952;2023-04-24T02:38:46;10.23;;;6.17;;
33553;SDS011;19885;42.208;24.952;2023-04-24T02:41:11;7.10;;;5.50;;
33553;SDS011;19885;42.208;24.952;2023-04-24T02:43:37;9.60;;;5.40;;
33553;SDS011;19885;42.208;24.952;2023-04-24T02:46:02;9.33;;;5.40;;
33553;SDS011;19885;42.208;24.952;2023-04-24T02:48:28;6.93;;;5.40;;
33553;SDS011;19885;42.208;24.952;2023-04-24T02:50:53;8.67;;;5.33;;
33553;SDS011;19885;42.208;24.952;2023-04-24T02:53:19;5.87;;;4.70;;
33553;SDS011;19885;42.208;24.952;2023-04-24T02:55:44;19.63;;;5.43;;
33553;SDS011;19885;42.208;24.952;2023-04-24T02:58:10;7.30;;;5.63;;
33553;SDS011;19885;42.208;24.952;2023-04-24T03:00:38;10.97;;;5.30;;
33553;SDS011;19885;42.208;24.952;2023-04-24T03:03:03;9.50;;;5.93;;
33553;SDS011;19885;42.208;24.952;2023-04-24T03:05:30;11.57;;;5.30;;
33553;SDS011;19885;42.208;24.952;2023-04-24T03:07:59;10.87;;;5.80;;
33553;SDS011;19885;42.208;24.952;2023-04-24T03:10:26;7.50;;;5.33;;
33553;SDS011;19885;42.208;24.952;2023-04-24T03:12:55;9.83;;;5.23;;
33553;SDS011;19885;42.208;24.952;2023-04-24T03:15:21;8.00;;;5.60;;
33553;SDS011;19885;42.208;24.952;2023-04-24T03:17:47;7.17;;;5.33;;
33553;SDS011;19885;42.208;24.952;2023-04-24T03:20:13;10.40;;;5.43;;
33553;SDS011;19885;42.208;24.952;2023-04-24T03:22:38;8.03;;;6.07;;
33553;SDS011;19885;42.208;24.952;2023-04-24T03:25:04;6.67;;;5.20;;
33553;SDS011;19885;42.208;24.952;2023-04-24T03:27:31;9.87;;;5.67;;
33553;SDS011;19885;42.208;24.952;2023-04-24T03:29:57;8.93;;;5.90;;
33553;SDS011;19885;42.208;24.952;2023-04-24T03:32:22;16.27;;;6.40;;
33553;SDS011;19885;42.208;24.952;2023-04-24T03:34:48;13.37;;;6.87;;
33553;SDS011;19885;42.208;24.952;2023-04-24T03:37:15;12.57;;;6.47;;
33553;SDS011;19885;42.208;24.952;2023-04-24T03:39:41;10.57;;;6.13;;
33553;SDS011;19885;42.208;24.952;2023-04-24T03:42:08;9.30;;;5.60;;
33553;SDS011;19885;42.208;24.952;2023-04-24T03:44:34;9.07;;;5.90;;
33553;SDS011;19885;42.208;24.952;2023-04-24T03:47:00;10.67;;;6.97;;
33553;SDS011;19885;42.208;24.952;2023-04-24T03:49:26;11.43;;;6.50;;
33553;SDS011;19885;42.208;24.952;2023-04-24T03:51:51;10.73;;;6.73;;
33553;SDS011;19885;42.208;24.952;2023-04-24T03:54:18;10.87;;;6.00;;
33553;SDS011;19885;42.208;24.952;2023-04-24T03:56:43;10.43;;;6.93;;
33553;SDS011;19885;42.208;24.952;2023-04-24T03:59:09;15.67;;;7.73;;
33553;SDS011;19885;42.208;24.952;2023-04-24T04:01:35;9.00;;;6.90;;
33553;SDS011;19885;42.208;24.952;2023-04-24T04:04:05;10.70;;;6.53;;
33553;SDS011;19885;42.208;24.952;2023-04-24T04:06:33;11.17;;;6.27;;
33553;SDS011;19885;42.208;24.952;2023-04-24T04:08:59;12.33;;;5.73;;
33553;SDS011;19885;42.208;24.952;2023-04-24T04:11:25;10.40;;;5.43;;
33553;SDS011;19885;42.208;24.952;2023-04-24T04:13:52;7.87;;;6.70;;
33553;SDS011;19885;42.208;24.952;2023-04-24T04:16:18;13.90;;;7.43;;
33553;SDS011;19885;42.208;24.952;2023-04-24T04:18:44;18.00;;;8.53;;
33553;SDS011;19885;42.208;24.952;2023-04-24T04:21:10;16.10;;;7.10;;
33553;SDS011;19885;42.208;24.952;2023-04-24T04:23:36;12.70;;;6.70;;
33553;SDS011;19885;42.208;24.952;2023-04-24T04:26:02;10.43;;;5.37;;
33553;SDS011;19885;42.208;24.952;2023-04-24T04:28:28;8.07;;;4.90;;
33553;SDS011;19885;42.208;24.952;2023-04-24T04:30:56;10.00;;;5.53;;
33553;SDS011;19885;42.208;24.952;2023-04-24T04:33:22;4.50;;;3.97;;
33553;SDS011;19885;42.208;24.952;2023-04-24T04:35:48;8.37;;;5.37;;
33553;SDS011;19885;42.208;24.952;2023-04-24T04:38:15;10.40;;;4.80;;
33553;SDS011;19885;42.208;24.952;2023-04-24T04:40:42;9.27;;;5.57;;
33553;SDS011;19885;42.208;24.952;2023-04-24T04:43:07;9.17;;;6.10;;
33553;SDS011;19885;42.208;24.952;2023-04-24T04:45:33;9.30;;;6.50;;
33553;SDS011;19885;42.208;24.952;2023-04-24T04:47:59;9.83;;;6.43;;
33553;SDS011;19885;42.208;24.952;2023-04-24T04:50:27;12.20;;;7.07;;
33553;SDS011;19885;42.208;24.952;2023-04-24T04:52:52;14.23;;;5.90;;
33553;SDS011;19885;42.208;24.952;2023-04-24T04:55:18;7.73;;;5.77;;
33553;SDS011;19885;42.208;24.952;2023-04-24T04:57:45;16.03;;;6.47;;
33553;SDS011;19885;42.208;24.952;2023-04-24T05:00:11;12.77;;;6.27;;
33553;SDS011;19885;42.208;24.952;2023-04-24T05:02:37;10.53;;;6.10;;
33553;SDS011;19885;42.208;24.952;2023-04-24T05:05:03;14.43;;;6.23;;
33553;SDS011;19885;42.208;24.952;2023-04-24T05:07:28;10.40;;;6.27;;
33553;SDS011;19885;42.208;24.952;2023-04-24T05:09:54;9.97;;;6.57;;
33553;SDS011;19885;42.208;24.952;2023-04-24T05:12:19;10.53;;;6.80;;
33553;SDS011;19885;42.208;24.952;2023-04-24T05:14:45;10.53;;;6.67;;
33553;SDS011;19885;42.208;24.952;2023-04-24T05:17:10;9.33;;;6.40;;
33553;SDS011;19885;42.208;24.952;2023-04-24T05:19:36;13.33;;;7.00;;
33553;SDS011;19885;42.208;24.952;2023-04-24T05:22:03;12.90;;;6.90;;
33553;SDS011;19885;42.208;24.952;2023-04-24T05:24:31;18.13;;;6.70;;
33553;SDS011;19885;42.208;24.952;2023-04-24T05:26:58;10.27;;;4.90;;
33553;SDS011;19885;42.208;24.952;2023-04-24T05:29:23;12.67;;;6.10;;
33553;SDS011;19885;42.208;24.952;2023-04-24T05:31:50;6.73;;;5.40;;
33553;SDS011;19885;42.208;24.952;2023-04-24T05:34:15;11.87;;;6.20;;
33553;SDS011;19885;42.208;24.952;2023-04-24T05:36:41;12.13;;;5.33;;
33553;SDS011;19885;42.208;24.952;2023-04-24T05:39:07;7.80;;;5.77;;
33553;SDS011;19885;42.208;24.952;2023-04-24T05:41:33;13.30;;;5.77;;
33553;SDS011;19885;42.208;24.952;2023-04-24T05:44:00;9.67;;;5.57;;
33553;SDS011;19885;42.208;24.952;2023-04-24T05:46:25;7.33;;;5.00;;
33553;SDS011;19885;42.208;24.952;2023-04-24T05:48:51;6.80;;;5.30;;
33553;SDS011;19885;42.208;24.952;2023-04-24T05:51:16;9.53;;;5.50;;
33553;SDS011;19885;42.208;24.952;2023-04-24T05:53:41;6.87;;;5.33;;
33553;SDS011;19885;42.208;24.952;2023-04-24T05:56:07;8.70;;;5.73;;
33553;SDS011;19885;42.208;24.952;2023-04-24T05:58:32;7.83;;;5.63;;
33553;SDS011;19885;42.208;24.952;2023-04-24T06:00:58;11.10;;;6.13;;
33553;SDS011;19885;42.208;24.952;2023-04-24T06:03:25;11.87;;;6.33;;
33553;SDS011;19885;42.208;24.952;2023-04-24T06:05:52;6.03;;;5.43;;
33553;SDS011;19885;42.208;24.952;2023-04-24T06:08:18;8.50;;;5.77;;
33553;SDS011;19885;42.208;24.952;2023-04-24T06:10:43;9.70;;;5.70;;
33553;SDS011;19885;42.208;24.952;2023-04-24T06:13:08;16.73;;;6.30;;
33553;SDS011;19885;42.208;24.952;2023-04-24T06:15:34;11.77;;;5.20;;
33553;SDS011;19885;42.208;24.952;2023-04-24T06:18:00;10.97;;;6.50;;
33553;SDS011;19885;42.208;24.952;2023-04-24T06:20:26;9.67;;;6.90;;
33553;SDS011;19885;42.208;24.952;2023-04-24T06:22:51;11.87;;;6.80;;
33553;SDS011;19885;42.208;24.952;2023-04-24T06:25:17;17.07;;;8.43;;
33553;SDS011;19885;42.208;24.952;2023-04-24T06:27:44;11.50;;;7.57;;
33553;SDS011;19885;42.208;24.952;2023-04-24T06:30:09;12.80;;;8.00;;
33553;SDS011;19885;42.208;24.952;2023-04-24T06:32:36;15.50;;;6.33;;
33553;SDS011;19885;42.208;24.952;2023-04-24T06:35:01;11.23;;;5.73;;
33553;SDS011;19885;42.208;24.952;2023-04-24T06:37:27;11.77;;;5.97;;
33553;SDS011;19885;42.208;24.952;2023-04-24T06:39:52;10.77;;;6.27;;
33553;SDS011;19885;42.208;24.952;2023-04-24T06:42:17;11.17;;;6.53;;
33553;SDS011;19885;42.208;24.952;2023-04-24T06:44:45;9.87;;;5.73;;
33553;SDS011;19885;42.208;24.952;2023-04-24T06:47:11;9.63;;;5.80;;
33553;SDS011;19885;42.208;24.952;2023-04-24T06:49:38;7.57;;;5.10;;
33553;SDS011;19885;42.208;24.952;2023-04-24T06:52:05;8.57;;;6.57;;
33553;SDS011;19885;42.208;24.952;2023-04-24T06:54:31;12.97;;;6.10;;
33553;SDS011;19885;42.208;24.952;2023-04-24T06:56:57;12.47;;;6.80;;
33553;SDS011;19885;42.208;24.952;2023-04-24T06:59:24;10.60;;;6.80;;
33553;SDS011;19885;42.208;24.952;2023-04-24T07:01:50;9.13;;;5.27;;
33553;SDS011;19885;42.208;24.952;2023-04-24T07:04:16;10.27;;;5.67;;
33553;SDS011;19885;42.208;24.952;2023-04-24T07:06:42;10.67;;;5.53;;
33553;SDS011;19885;42.208;24.952;2023-04-24T07:09:08;7.93;;;5.13;;
33553;SDS011;19885;42.208;24.952;2023-04-24T07:11:34;6.10;;;5.03;;
33553;SDS011;19885;42.208;24.952;2023-04-24T07:14:00;7.70;;;4.93;;
33553;SDS011;19885;42.208;24.952;2023-04-24T07:16:25;11.07;;;5.30;;
33553;SDS011;19885;42.208;24.952;2023-04-24T07:18:51;10.30;;;5.40;;
33553;SDS011;19885;42.208;24.952;2023-04-24T07:21:17;10.80;;;6.00;;
33553;SDS011;19885;42.208;24.952;2023-04-24T07:23:42;8.50;;;4.93;;
33553;SDS011;19885;42.208;24.952;2023-04-24T07:26:08;9.70;;;5.73;;
33553;SDS011;19885;42.208;24.952;2023-04-24T07:28:33;22.57;;;7.27;;
33553;SDS011;19885;42.208;24.952;2023-04-24T07:30:59;9.77;;;6.63;;
33553;SDS011;19885;42.208;24.952;2023-04-24T07:33:25;10.57;;;6.13;;
33553;SDS011;19885;42.208;24.952;2023-04-24T07:35:53;11.20;;;5.20;;
33553;SDS011;19885;42.208;24.952;2023-04-24T07:38:18;7.27;;;5.17;;
33553;SDS011;19885;42.208;24.952;2023-04-24T07:40:47;9.50;;;5.03;;
33553;SDS011;19885;42.208;24.952;2023-04-24T07:43:13;8.83;;;5.50;;
33553;SDS011;19885;42.208;24.952;2023-04-24T07:45:39;10.50;;;5.30;;
33553;SDS011;19885;42.208;24.952;2023-04-24T07:48:06;6.17;;;4.20;;
33553;SDS011;19885;42.208;24.952;2023-04-24T07:50:34;6.30;;;4.93;;
33553;SDS011;19885;42.208;24.952;2023-04-24T07:52:59;7.50;;;4.73;;
33553;SDS011;19885;42.208;24.952;2023-04-24T07:55:25;5.57;;;4.60;;
33553;SDS011;19885;42.208;24.952;2023-04-24T07:57:51;10.97;;;6.03;;
33553;SDS011;19885;42.208;24.952;2023-04-24T08:00:16;7.97;;;4.67;;
33553;SDS011;19885;42.208;24.952;2023-04-24T08:02:42;9.67;;;4.93;;
33553;SDS011;19885;42.208;24.952;2023-04-24T08:05:07;8.53;;;4.43;;
33553;SDS011;19885;42.208;24.952;2023-04-24T08:07:33;13.13;;;4.80;;
33553;SDS011;19885;42.208;24.952;2023-04-24T08:10:00;9.07;;;4.63;;
33553;SDS011;19885;42.208;24.952;2023-04-24T08:12:26;7.10;;;4.70;;
33553;SDS011;19885;42.208;24.952;2023-04-24T08:14:53;8.43;;;4.67;;
33553;SDS011;19885;42.208;24.952;2023-04-24T08:17:18;6.40;;;3.73;;
33553;SDS011;19885;42.208;24.952;2023-04-24T08:19:44;8.03;;;4.13;;
33553;SDS011;19885;42.208;24.952;2023-04-24T08:22:13;6.23;;;4.67;;
33553;SDS011;19885;42.208;24.952;2023-04-24T08:24:39;5.83;;;4.27;;
33553;SDS011;19885;42.208;24.952;2023-04-24T08:27:05;7.07;;;4.07;;
33553;SDS011;19885;42.208;24.952;2023-04-24T08:29:30;6.00;;;4.50;;
33553;SDS011;19885;42.208;24.952;2023-04-24T08:31:56;5.67;;;4.10;;
33553;SDS011;19885;42.208;24.952;2023-04-24T08:34:22;13.40;;;4.83;;
33553;SDS011;19885;42.208;24.952;2023-04-24T08:36:48;13.50;;;4.43;;
33553;SDS011;19885;42.208;24.952;2023-04-24T08:39:13;5.20;;;4.10;;
33553;SDS011;19885;42.208;24.952;2023-04-24T08:41:41;5.00;;;3.73;;
33553;SDS011;19885;42.208;24.952;2023-04-24T08:44:08;8.13;;;3.83;;
33553;SDS011;19885;42.208;24.952;2023-04-24T08:46:34;5.50;;;3.97;;
33553;SDS011;19885;42.208;24.952;2023-04-24T08:52:39;18.37;;;4.83;;
33553;SDS011;19885;42.208;24.952;2023-04-24T08:55:06;15.30;;;4.73;;
33553;SDS011;19885;42.208;24.952;2023-04-24T08:57:31;6.70;;;4.07;;
33553;SDS011;19885;42.208;24.952;2023-04-24T08:59:58;13.50;;;4.13;;
33553;SDS011;19885;42.208;24.952;2023-04-24T09:02:25;8.27;;;4.50;;
33553;SDS011;19885;42.208;24.952;2023-04-24T09:04:50;5.40;;;3.70;;
33553;SDS011;19885;42.208;24.952;2023-04-24T09:07:18;8.23;;;4.13;;
33553;SDS011;19885;42.208;24.952;2023-04-24T09:09:44;4.00;;;3.17;;
33553;SDS011;19885;42.208;24.952;2023-04-24T09:12:10;10.07;;;3.80;;
33553;SDS011;19885;42.208;24.952;2023-04-24T09:14:36;10.77;;;4.73;;
33553;SDS011;19885;42.208;24.952;2023-04-24T09:17:04;4.67;;;3.90;;
33553;SDS011;19885;42.208;24.952;2023-04-24T09:19:31;7.50;;;4.57;;
33553;SDS011;19885;42.208;24.952;2023-04-24T09:21:56;7.40;;;3.60;;
33553;SDS011;19885;42.208;24.952;2023-04-24T09:24:22;5.20;;;3.63;;
33553;SDS011;19885;42.208;24.952;2023-04-24T09:26:48;4.70;;;3.77;;
33553;SDS011;19885;42.208;24.952;2023-04-24T09:29:18;6.23;;;3.63;;
33553;SDS011;19885;42.208;24.952;2023-04-24T09:31:44;7.60;;;3.87;;
33553;SDS011;19885;42.208;24.952;2023-04-24T09:34:10;4.83;;;3.50;;
33553;SDS011;19885;42.208;24.952;2023-04-24T09:36:37;7.47;;;3.90;;
33553;SDS011;19885;42.208;24.952;2023-04-24T09:39:05;4.33;;;3.10;;
33553;SDS011;19885;42.208;24.952;2023-04-24T09:41:33;4.20;;;2.63;;
33553;SDS011;19885;42.208;24.952;2023-04-24T09:44:10;11.53;;;4.47;;
33553;SDS011;19885;42.208;24.952;2023-04-24T09:46:41;4.57;;;4.00;;
33553;SDS011;19885;42.208;24.952;2023-04-24T09:49:08;8.43;;;3.13;;
33553;SDS011;19885;42.208;24.952;2023-04-24T09:51:46;5.77;;;3.83;;
33553;SDS011;19885;42.208;24.952;2023-04-24T09:54:16;4.20;;;2.83;;
33553;SDS011;19885;42.208;24.952;2023-04-24T09:56:47;3.80;;;3.50;;
33553;SDS011;19885;42.208;24.952;2023-04-24T09:59:15;9.73;;;3.20;;
33553;SDS011;19885;42.208;24.952;2023-04-24T10:01:42;4.07;;;3.30;;
33553;SDS011;19885;42.208;24.952;2023-04-24T10:04:19;3.97;;;3.57;;
33553;SDS011;19885;42.208;24.952;2023-04-24T10:06:45;6.70;;;3.87;;
33553;SDS011;19885;42.208;24.952;2023-04-24T10:09:12;4.77;;;3.23;;
33553;SDS011;19885;42.208;24.952;2023-04-24T10:11:41;3.10;;;2.33;;
33553;SDS011;19885;42.208;24.952;2023-04-24T10:14:09;4.43;;;2.60;;
33553;SDS011;19885;42.208;24.952;2023-04-24T10:16:37;5.03;;;2.80;;
33553;SDS011;19885;42.208;24.952;2023-04-24T10:19:04;3.78;;;2.78;;
33553;SDS011;19885;42.208;24.952;2023-04-24T10:21:30;9.50;;;2.90;;
33553;SDS011;19885;42.208;24.952;2023-04-24T10:23:56;10.15;;;3.70;;
33553;SDS011;19885;42.208;24.952;2023-04-24T10:26:24;2.85;;;2.65;;
33553;SDS011;19885;42.208;24.952;2023-04-24T10:28:52;3.22;;;2.92;;
33553;SDS011;19885;42.208;24.952;2023-04-24T10:31:19;3.75;;;3.08;;
33553;SDS011;19885;42.208;24.952;2023-04-24T10:33:46;3.38;;;3.03;;
33553;SDS011;19885;42.208;24.952;2023-04-24T10:36:12;4.32;;;2.70;;
33553;SDS011;19885;42.208;24.952;2023-04-24T10:38:40;5.85;;;3.30;;
33553;SDS011;19885;42.208;24.952;2023-04-24T10:41:12;4.78;;;3.15;;
33553;SDS011;19885;42.208;24.952;2023-04-24T10:44:10;6.38;;;2.97;;
33553;SDS011;19885;42.208;24.952;2023-04-24T10:46:37;9.65;;;2.63;;
33553;SDS011;19885;42.208;24.952;2023-04-24T10:49:04;3.22;;;2.33;;
33553;SDS011;19885;42.208;24.952;2023-04-24T10:51:52;7.07;;;3.83;;
33553;SDS011;19885;42.208;24.952;2023-04-24T10:54:26;7.43;;;3.40;;
33553;SDS011;19885;42.208;24.952;2023-04-24T10:59:43;4.45;;;2.67;;
33553;SDS011;19885;42.208;24.952;2023-04-24T11:02:10;14.93;;;3.38;;
33553;SDS011;19885;42.208;24.952;2023-04-24T11:04:39;5.15;;;2.85;;
33553;SDS011;19885;42.208;24.952;2023-04-24T11:07:04;3.15;;;2.67;;
33553;SDS011;19885;42.208;24.952;2023-04-24T11:09:30;6.93;;;3.33;;
33553;SDS011;19885;42.208;24.952;2023-04-24T11:12:04;3.42;;;2.63;;
33553;SDS011;19885;42.208;24.952;2023-04-24T11:17:33;4.28;;;2.85;;
33553;SDS011;19885;42.208;24.952;2023-04-24T11:20:05;4.15;;;3.08;;
33553;SDS011;19885;42.208;24.952;2023-04-24T11:22:34;5.03;;;3.42;;
33553;SDS011;19885;42.208;24.952;2023-04-24T11:25:01;5.15;;;3.35;;
33553;SDS011;19885;42.208;24.952;2023-04-24T11:27:30;4.80;;;3.20;;
33553;SDS011;19885;42.208;24.952;2023-04-24T11:30:00;5.53;;;3.38;;
33553;SDS011;19885;42.208;24.952;2023-04-24T11:35:06;6.68;;;3.67;;
33553;SDS011;19885;42.208;24.952;2023-04-24T11:40:02;5.00;;;3.08;;
33553;SDS011;19885;42.208;24.952;2023-04-24T11:42:33;4.28;;;3.20;;
33553;SDS011;19885;42.208;24.952;2023-04-24T11:45:17;7.10;;;2.83;;
33553;SDS011;19885;42.208;24.952;2023-04-24T11:47:53;4.95;;;2.72;;
33553;SDS011;19885;42.208;24.952;2023-04-24T11:50:21;6.90;;;2.97;;
33553;SDS011;19885;42.208;24.952;2023-04-24T11:52:50;5.68;;;3.45;;
33553;SDS011;19885;42.208;24.952;2023-04-24T11:57:44;3.63;;;2.58;;
33553;SDS011;19885;42.208;24.952;2023-04-24T12:00:15;6.80;;;3.30;;
33553;SDS011;19885;42.208;24.952;2023-04-24T12:02:43;4.20;;;2.92;;
33553;SDS011;19885;42.208;24.952;2023-04-24T12:05:09;4.60;;;3.20;;
33553;SDS011;19885;42.208;24.952;2023-04-24T12:07:53;3.80;;;3.17;;
33553;SDS011;19885;42.208;24.952;2023-04-24T12:10:20;3.90;;;3.03;;
33553;SDS011;19885;42.208;24.952;2023-04-24T12:12:47;3.55;;;2.63;;
33553;SDS011;19885;42.208;24.952;2023-04-24T12:15:15;3.72;;;3.00;;
33553;SDS011;19885;42.208;24.952;2023-04-24T12:17:42;5.32;;;3.38;;
33553;SDS011;19885;42.208;24.952;2023-04-24T12:20:08;2.67;;;2.40;;
33553;SDS011;19885;42.208;24.952;2023-04-24T12:25:23;4.03;;;2.65;;
33553;SDS011;19885;42.208;24.952;2023-04-24T12:27:54;5.07;;;2.60;;
33553;SDS011;19885;42.208;24.952;2023-04-24T12:30:29;4.07;;;3.05;;
33553;SDS011;19885;42.208;24.952;2023-04-24T12:32:59;8.32;;;3.78;;
33553;SDS011;19885;42.208;24.952;2023-04-24T12:35:27;5.75;;;2.85;;
33553;SDS011;19885;42.208;24.952;2023-04-24T12:37:54;11.35;;;3.70;;
33553;SDS011;19885;42.208;24.952;2023-04-24T12:40:20;4.55;;;2.80;;
33553;SDS011;19885;42.208;24.952;2023-04-24T12:42:48;5.72;;;3.03;;
33553;SDS011;19885;42.208;24.952;2023-04-24T12:45:16;3.63;;;3.10;;
33553;SDS011;19885;42.208;24.952;2023-04-24T12:47:43;4.05;;;2.30;;
33553;SDS011;19885;42.208;24.952;2023-04-24T12:50:11;4.25;;;3.10;;
33553;SDS011;19885;42.208;24.952;2023-04-24T12:52:38;3.92;;;2.90;;
33553;SDS011;19885;42.208;24.952;2023-04-24T12:55:07;7.90;;;2.55;;
33553;SDS011;19885;42.208;24.952;2023-04-24T12:57:34;9.43;;;2.33;;
33553;SDS011;19885;42.208;24.952;2023-04-24T13:00:01;4.28;;;2.80;;
33553;SDS011;19885;42.208;24.952;2023-04-24T13:02:28;4.65;;;2.85;;
33553;SDS011;19885;42.208;24.952;2023-04-24T13:04:56;3.00;;;2.70;;
33553;SDS011;19885;42.208;24.952;2023-04-24T13:07:22;5.20;;;3.03;;
33553;SDS011;19885;42.208;24.952;2023-04-24T13:09:49;6.05;;;2.75;;
33553;SDS011;19885;42.208;24.952;2023-04-24T13:12:15;6.80;;;2.90;;
33553;SDS011;19885;42.208;24.952;2023-04-24T13:14:41;8.32;;;3.03;;
33553;SDS011;19885;42.208;24.952;2023-04-24T13:17:06;4.78;;;3.88;;
33553;SDS011;19885;42.208;24.952;2023-04-24T13:19:36;9.63;;;2.95;;
33553;SDS011;19885;42.208;24.952;2023-04-24T13:22:03;8.60;;;3.58;;
33553;SDS011;19885;42.208;24.952;2023-04-24T13:24:29;4.05;;;2.92;;
33553;SDS011;19885;42.208;24.952;2023-04-24T13:26:56;29.00;;;5.90;;
33553;SDS011;19885;42.208;24.952;2023-04-24T13:29:22;3.25;;;2.33;;
33553;SDS011;19885;42.208;24.952;2023-04-24T13:31:51;3.63;;;2.53;;
33553;SDS011;19885;42.208;24.952;2023-04-24T13:34:21;20.73;;;13.80;;
33553;SDS011;19885;42.208;24.952;2023-04-24T13:36:52;3.53;;;2.97;;
33553;SDS011;19885;42.208;24.952;2023-04-24T13:39:18;3.60;;;2.60;;
33553;SDS011;19885;42.208;24.952;2023-04-24T13:41:44;5.75;;;2.47;;
33553;SDS011;19885;42.208;24.952;2023-04-24T13:44:12;5.43;;;2.80;;
33553;SDS011;19885;42.208;24.952;2023-04-24T13:46:37;7.00;;;3.07;;
33553;SDS011;19885;42.208;24.952;2023-04-24T13:49:02;5.38;;;2.47;;
33553;SDS011;19885;42.208;24.952;2023-04-24T13:51:32;3.38;;;2.58;;
33553;SDS011;19885;42.208;24.952;2023-04-24T13:53:57;3.42;;;2.50;;
33553;SDS011;19885;42.208;24.952;2023-04-24T13:56:23;7.78;;;2.67;;
33553;SDS011;19885;42.208;24.952;2023-04-24T13:58:48;2.88;;;2.67;;
33553;SDS011;19885;42.208;24.952;2023-04-24T14:01:14;2.58;;;2.20;;
33553;SDS011;19885;42.208;24.952;2023-04-24T14:03:41;5.05;;;2.15;;
33553;SDS011;19885;42.208;24.952;2023-04-24T14:06:08;3.95;;;2.58;;
33553;SDS011;19885;42.208;24.952;2023-04-24T14:08:33;2.28;;;2.08;;
33553;SDS011;19885;42.208;24.952;2023-04-24T14:10:59;10.27;;;2.42;;
33553;SDS011;19885;42.208;24.952;2023-04-24T14:13:24;3.70;;;2.55;;
33553;SDS011;19885;42.208;24.952;2023-04-24T14:15:50;4.10;;;2.78;;
33553;SDS011;19885;42.208;24.952;2023-04-24T14:18:17;3.53;;;2.67;;
33553;SDS011;19885;42.208;24.952;2023-04-24T14:20:43;4.95;;;2.53;;
33553;SDS011;19885;42.208;24.952;2023-04-24T14:23:08;2.95;;;2.30;;
33553;SDS011;19885;42.208;24.952;2023-04-24T14:25:34;5.03;;;2.50;;
33553;SDS011;19885;42.208;24.952;2023-04-24T14:27:59;5.15;;;2.50;;
33553;SDS011;19885;42.208;24.952;2023-04-24T14:30:25;4.90;;;2.38;;
33553;SDS011;19885;42.208;24.952;2023-04-24T14:32:50;7.20;;;3.30;;
33553;SDS011;19885;42.208;24.952;2023-04-24T14:35:16;7.20;;;2.55;;
33553;SDS011;19885;42.208;24.952;2023-04-24T14:37:41;4.13;;;2.85;;
33553;SDS011;19885;42.208;24.952;2023-04-24T14:40:07;4.40;;;2.65;;
33553;SDS011;19885;42.208;24.952;2023-04-24T14:42:34;5.38;;;3.28;;
33553;SDS011;19885;42.208;24.952;2023-04-24T14:45:00;12.82;;;3.30;;